sensor_id;sensor_type;location;lat;lon;timestamp;temperature;humidity
30379;DHT22;17168;49.164;9.060;2022-08-01T00:00:04;23.50;54.10
30379;DHT22;17168;49.164;9.060;2022-08-01T00:02:35;23.50;54.30
30379;DHT22;17168;49.164;9.060;2022-08-01T00:05:02;23.50;54.40
30379;DHT22;17168;49.164;9.060;2022-08-01T00:07:29;23.50;54.50
30379;DHT22;17168;49.164;9.060;2022-08-01T00:09:57;23.40;54.60
30379;DHT22;17168;49.164;9.060;2022-08-01T00:12:23;23.40;54.90
30379;DHT22;17168;49.164;9.060;2022-08-01T00:14:50;23.40;55.00
30379;DHT22;17168;49.164;9.060;2022-08-01T00:17:17;23.30;55.10
30379;DHT22;17168;49.164;9.060;2022-08-01T00:19:44;23.30;55.20
30379;DHT22;17168;49.164;9.060;2022-08-01T00:22:11;23.20;55.30
30379;DHT22;17168;49.164;9.060;2022-08-01T00:24:37;23.20;55.50
30379;DHT22;17168;49.164;9.060;2022-08-01T00:27:05;23.20;55.60
30379;DHT22;17168;49.164;9.060;2022-08-01T00:29:32;23.20;55.80
30379;DHT22;17168;49.164;9.060;2022-08-01T00:32:19;23.10;55.90
30379;DHT22;17168;49.164;9.060;2022-08-01T00:34:46;23.10;56.00
30379;DHT22;17168;49.164;9.060;2022-08-01T00:37:13;23.10;56.20
30379;DHT22;17168;49.164;9.060;2022-08-01T00:39:42;23.10;56.30
30379;DHT22;17168;49.164;9.060;2022-08-01T00:42:11;23.00;56.40
30379;DHT22;17168;49.164;9.060;2022-08-01T00:44:38;22.90;56.60
30379;DHT22;17168;49.164;9.060;2022-08-01T00:47:05;22.90;56.80
30379;DHT22;17168;49.164;9.060;2022-08-01T00:49:32;22.90;57.00
30379;DHT22;17168;49.164;9.060;2022-08-01T00:52:00;22.80;57.10
30379;DHT22;17168;49.164;9.060;2022-08-01T00:54:28;22.90;60.60
30379;DHT22;17168;49.164;9.060;2022-08-01T00:56:55;22.80;58.30
30379;DHT22;17168;49.164;9.060;2022-08-01T00:59:24;22.80;62.20
30379;DHT22;17168;49.164;9.060;2022-08-01T01:01:51;22.80;61.20
30379;DHT22;17168;49.164;9.060;2022-08-01T01:04:19;22.80;60.50
30379;DHT22;17168;49.164;9.060;2022-08-01T01:06:51;22.70;62.30
30379;DHT22;17168;49.164;9.060;2022-08-01T01:09:30;22.70;62.10
30379;DHT22;17168;49.164;9.060;2022-08-01T01:12:05;22.60;63.90
30379;DHT22;17168;49.164;9.060;2022-08-01T01:14:39;22.60;67.30
30379;DHT22;17168;49.164;9.060;2022-08-01T01:17:13;22.60;67.70
30379;DHT22;17168;49.164;9.060;2022-08-01T01:19:45;22.80;68.40
30379;DHT22;17168;49.164;9.060;2022-08-01T01:22:35;22.80;72.50
30379;DHT22;17168;49.164;9.060;2022-08-01T01:28:06;22.40;59.30
30379;DHT22;17168;49.164;9.060;2022-08-01T01:30:38;22.40;59.40
30379;DHT22;17168;49.164;9.060;2022-08-01T01:33:06;22.40;59.50
30379;DHT22;17168;49.164;9.060;2022-08-01T01:35:38;22.40;59.60
30379;DHT22;17168;49.164;9.060;2022-08-01T01:38:12;22.40;59.70
30379;DHT22;17168;49.164;9.060;2022-08-01T01:40:41;22.40;60.30
30379;DHT22;17168;49.164;9.060;2022-08-01T01:43:10;22.40;59.80
30379;DHT22;17168;49.164;9.060;2022-08-01T01:45:40;22.40;59.80
30379;DHT22;17168;49.164;9.060;2022-08-01T01:48:09;22.40;59.80
30379;DHT22;17168;49.164;9.060;2022-08-01T01:50:39;22.50;59.90
30379;DHT22;17168;49.164;9.060;2022-08-01T01:53:08;22.40;60.00
30379;DHT22;17168;49.164;9.060;2022-08-01T01:55:42;22.40;60.10
30379;DHT22;17168;49.164;9.060;2022-08-01T01:58:16;22.40;60.20
30379;DHT22;17168;49.164;9.060;2022-08-01T02:00:46;22.40;60.40
30379;DHT22;17168;49.164;9.060;2022-08-01T02:03:18;22.30;60.60
30379;DHT22;17168;49.164;9.060;2022-08-01T02:05:45;22.30;60.80
30379;DHT22;17168;49.164;9.060;2022-08-01T02:08:15;22.30;61.00
30379;DHT22;17168;49.164;9.060;2022-08-01T02:10:44;22.30;61.30
30379;DHT22;17168;49.164;9.060;2022-08-01T02:13:33;22.20;61.40
30379;DHT22;17168;49.164;9.060;2022-08-01T02:16:03;22.10;61.60
30379;DHT22;17168;49.164;9.060;2022-08-01T02:18:30;22.10;61.90
30379;DHT22;17168;49.164;9.060;2022-08-01T02:20:59;22.00;62.10
30379;DHT22;17168;49.164;9.060;2022-08-01T02:23:29;22.00;62.30
30379;DHT22;17168;49.164;9.060;2022-08-01T02:25:58;22.00;62.50
30379;DHT22;17168;49.164;9.060;2022-08-01T02:28:43;21.90;62.70
30379;DHT22;17168;49.164;9.060;2022-08-01T02:31:15;21.90;63.00
30379;DHT22;17168;49.164;9.060;2022-08-01T02:33:45;21.90;63.30
30379;DHT22;17168;49.164;9.060;2022-08-01T02:36:16;21.80;63.40
30379;DHT22;17168;49.164;9.060;2022-08-01T02:38:59;21.80;63.70
30379;DHT22;17168;49.164;9.060;2022-08-01T02:41:27;21.80;63.80
30379;DHT22;17168;49.164;9.060;2022-08-01T02:43:58;21.70;64.10
30379;DHT22;17168;49.164;9.060;2022-08-01T02:46:35;21.70;64.30
30379;DHT22;17168;49.164;9.060;2022-08-01T02:49:04;21.70;64.50
30379;DHT22;17168;49.164;9.060;2022-08-01T02:51:33;21.70;64.60
30379;DHT22;17168;49.164;9.060;2022-08-01T02:54:03;21.70;64.80
30379;DHT22;17168;49.164;9.060;2022-08-01T02:56:32;21.70;65.40
30379;DHT22;17168;49.164;9.060;2022-08-01T02:59:05;21.60;65.00
30379;DHT22;17168;49.164;9.060;2022-08-01T03:01:36;21.60;65.20
30379;DHT22;17168;49.164;9.060;2022-08-01T03:04:04;21.60;65.40
30379;DHT22;17168;49.164;9.060;2022-08-01T03:06:32;21.60;65.50
30379;DHT22;17168;49.164;9.060;2022-08-01T03:09:02;21.60;65.70
30379;DHT22;17168;49.164;9.060;2022-08-01T03:11:30;21.60;65.90
30379;DHT22;17168;49.164;9.060;2022-08-01T03:13:59;21.60;71.00
30379;DHT22;17168;49.164;9.060;2022-08-01T03:16:28;21.70;72.90
30379;DHT22;17168;49.164;9.060;2022-08-01T03:18:58;21.60;74.20
30379;DHT22;17168;49.164;9.060;2022-08-01T03:21:27;21.60;76.50
30379;DHT22;17168;49.164;9.060;2022-08-01T03:23:56;21.60;78.00
30379;DHT22;17168;49.164;9.060;2022-08-01T03:26:27;21.60;73.40
30379;DHT22;17168;49.164;9.060;2022-08-01T03:28:57;21.50;73.90
30379;DHT22;17168;49.164;9.060;2022-08-01T03:31:25;21.50;73.80
30379;DHT22;17168;49.164;9.060;2022-08-01T03:33:53;21.40;73.60
30379;DHT22;17168;49.164;9.060;2022-08-01T03:36:25;21.30;67.50
30379;DHT22;17168;49.164;9.060;2022-08-01T03:38:57;21.30;67.80
30379;DHT22;17168;49.164;9.060;2022-08-01T03:41:27;21.30;83.20
30379;DHT22;17168;49.164;9.060;2022-08-01T03:43:56;21.30;77.10
30379;DHT22;17168;49.164;9.060;2022-08-01T03:46:28;21.30;76.30
30379;DHT22;17168;49.164;9.060;2022-08-01T03:49:00;21.30;78.00
30379;DHT22;17168;49.164;9.060;2022-08-01T03:51:29;21.30;77.90
30379;DHT22;17168;49.164;9.060;2022-08-01T03:54:00;21.30;78.20
30379;DHT22;17168;49.164;9.060;2022-08-01T03:56:27;21.30;79.90
30379;DHT22;17168;49.164;9.060;2022-08-01T03:58:59;21.20;80.50
30379;DHT22;17168;49.164;9.060;2022-08-01T04:01:26;21.20;82.40
30379;DHT22;17168;49.164;9.060;2022-08-01T04:03:54;21.20;89.40
30379;DHT22;17168;49.164;9.060;2022-08-01T04:06:21;21.00;87.50
30379;DHT22;17168;49.164;9.060;2022-08-01T04:08:50;21.10;88.60
30379;DHT22;17168;49.164;9.060;2022-08-01T04:11:24;21.10;82.00
30379;DHT22;17168;49.164;9.060;2022-08-01T04:13:52;21.10;79.40
30379;DHT22;17168;49.164;9.060;2022-08-01T04:16:21;21.10;79.00
30379;DHT22;17168;49.164;9.060;2022-08-01T04:18:48;21.10;78.90
30379;DHT22;17168;49.164;9.060;2022-08-01T04:21:18;21.10;78.50
30379;DHT22;17168;49.164;9.060;2022-08-01T04:23:47;21.20;78.40
30379;DHT22;17168;49.164;9.060;2022-08-01T04:26:21;21.20;78.30
30379;DHT22;17168;49.164;9.060;2022-08-01T04:28:49;21.20;78.10
30379;DHT22;17168;49.164;9.060;2022-08-01T04:31:17;21.20;77.80
30379;DHT22;17168;49.164;9.060;2022-08-01T04:33:48;21.20;77.90
30379;DHT22;17168;49.164;9.060;2022-08-01T04:36:18;21.20;78.30
30379;DHT22;17168;49.164;9.060;2022-08-01T04:38:48;21.20;79.10
30379;DHT22;17168;49.164;9.060;2022-08-01T04:41:17;21.20;79.20
30379;DHT22;17168;49.164;9.060;2022-08-01T04:43:46;21.20;79.50
30379;DHT22;17168;49.164;9.060;2022-08-01T04:46:14;21.10;79.60
30379;DHT22;17168;49.164;9.060;2022-08-01T04:48:41;21.20;79.90
30379;DHT22;17168;49.164;9.060;2022-08-01T04:51:12;21.10;80.30
30379;DHT22;17168;49.164;9.060;2022-08-01T04:53:39;21.20;80.80
30379;DHT22;17168;49.164;9.060;2022-08-01T04:56:06;21.20;80.60
30379;DHT22;17168;49.164;9.060;2022-08-01T04:58:33;21.20;80.90
30379;DHT22;17168;49.164;9.060;2022-08-01T05:01:01;21.20;80.90
30379;DHT22;17168;49.164;9.060;2022-08-01T05:03:28;21.20;81.10
30379;DHT22;17168;49.164;9.060;2022-08-01T05:05:55;21.20;81.20
30379;DHT22;17168;49.164;9.060;2022-08-01T05:08:22;21.20;81.30
30379;DHT22;17168;49.164;9.060;2022-08-01T05:10:49;21.20;81.30
30379;DHT22;17168;49.164;9.060;2022-08-01T05:13:16;21.30;81.50
30379;DHT22;17168;49.164;9.060;2022-08-01T05:15:43;21.30;81.90
30379;DHT22;17168;49.164;9.060;2022-08-01T05:18:11;21.30;82.00
30379;DHT22;17168;49.164;9.060;2022-08-01T05:20:40;21.30;82.70
30379;DHT22;17168;49.164;9.060;2022-08-01T05:23:07;21.40;83.00
30379;DHT22;17168;49.164;9.060;2022-08-01T05:25:43;21.40;83.10
30379;DHT22;17168;49.164;9.060;2022-08-01T05:28:23;21.40;83.60
30379;DHT22;17168;49.164;9.060;2022-08-01T05:30:50;21.40;84.00
30379;DHT22;17168;49.164;9.060;2022-08-01T05:33:22;21.50;84.40
30379;DHT22;17168;49.164;9.060;2022-08-01T05:35:49;21.50;84.50
30379;DHT22;17168;49.164;9.060;2022-08-01T05:38:16;21.50;84.90
30379;DHT22;17168;49.164;9.060;2022-08-01T05:40:43;21.50;84.90
30379;DHT22;17168;49.164;9.060;2022-08-01T05:43:09;21.60;84.70
30379;DHT22;17168;49.164;9.060;2022-08-01T05:45:36;21.60;84.80
30379;DHT22;17168;49.164;9.060;2022-08-01T05:48:03;21.70;85.00
30379;DHT22;17168;49.164;9.060;2022-08-01T05:50:32;21.70;85.10
30379;DHT22;17168;49.164;9.060;2022-08-01T05:52:59;21.70;85.40
30379;DHT22;17168;49.164;9.060;2022-08-01T05:55:26;21.80;85.40
30379;DHT22;17168;49.164;9.060;2022-08-01T05:57:53;21.80;85.40
30379;DHT22;17168;49.164;9.060;2022-08-01T06:00:20;21.80;85.70
30379;DHT22;17168;49.164;9.060;2022-08-01T06:02:47;21.90;85.80
30379;DHT22;17168;49.164;9.060;2022-08-01T06:05:14;21.90;85.80
30379;DHT22;17168;49.164;9.060;2022-08-01T06:07:42;22.00;86.00
30379;DHT22;17168;49.164;9.060;2022-08-01T06:10:09;22.00;86.10
30379;DHT22;17168;49.164;9.060;2022-08-01T06:12:36;22.10;86.10
30379;DHT22;17168;49.164;9.060;2022-08-01T06:15:03;22.10;86.40
30379;DHT22;17168;49.164;9.060;2022-08-01T06:17:31;22.20;86.40
30379;DHT22;17168;49.164;9.060;2022-08-01T06:19:57;22.20;86.30
30379;DHT22;17168;49.164;9.060;2022-08-01T06:22:24;22.30;86.50
30379;DHT22;17168;49.164;9.060;2022-08-01T06:24:52;22.40;86.40
30379;DHT22;17168;49.164;9.060;2022-08-01T06:27:19;22.40;86.60
30379;DHT22;17168;49.164;9.060;2022-08-01T06:29:48;22.50;86.70
30379;DHT22;17168;49.164;9.060;2022-08-01T06:32:19;22.50;86.70
30379;DHT22;17168;49.164;9.060;2022-08-01T06:34:54;22.50;86.50
30379;DHT22;17168;49.164;9.060;2022-08-01T06:37:22;22.60;86.60
30379;DHT22;17168;49.164;9.060;2022-08-01T06:39:49;22.60;86.70
30379;DHT22;17168;49.164;9.060;2022-08-01T06:42:18;22.70;86.60
30379;DHT22;17168;49.164;9.060;2022-08-01T06:44:44;22.80;86.70
30379;DHT22;17168;49.164;9.060;2022-08-01T06:47:11;22.80;86.50
30379;DHT22;17168;49.164;9.060;2022-08-01T06:49:38;22.90;86.50
30379;DHT22;17168;49.164;9.060;2022-08-01T06:52:05;22.90;86.20
30379;DHT22;17168;49.164;9.060;2022-08-01T06:54:32;23.00;86.50
30379;DHT22;17168;49.164;9.060;2022-08-01T06:56:59;23.00;86.10
30379;DHT22;17168;49.164;9.060;2022-08-01T06:59:27;23.10;86.10
30379;DHT22;17168;49.164;9.060;2022-08-01T07:01:55;23.10;85.90
30379;DHT22;17168;49.164;9.060;2022-08-01T07:04:22;23.20;85.80
30379;DHT22;17168;49.164;9.060;2022-08-01T07:06:49;23.20;85.50
30379;DHT22;17168;49.164;9.060;2022-08-01T07:09:16;23.30;84.90
30379;DHT22;17168;49.164;9.060;2022-08-01T07:11:42;23.30;84.80
30379;DHT22;17168;49.164;9.060;2022-08-01T07:14:09;23.30;84.80
30379;DHT22;17168;49.164;9.060;2022-08-01T07:16:37;23.30;85.40
30379;DHT22;17168;49.164;9.060;2022-08-01T07:19:05;23.40;86.50
30379;DHT22;17168;49.164;9.060;2022-08-01T07:21:31;23.40;86.50
30379;DHT22;17168;49.164;9.060;2022-08-01T07:24:07;23.40;86.30
30379;DHT22;17168;49.164;9.060;2022-08-01T07:26:40;23.50;85.80
30379;DHT22;17168;49.164;9.060;2022-08-01T07:29:20;23.50;85.30
30379;DHT22;17168;49.164;9.060;2022-08-01T07:31:48;23.50;84.30
30379;DHT22;17168;49.164;9.060;2022-08-01T07:34:15;23.60;84.70
30379;DHT22;17168;49.164;9.060;2022-08-01T07:36:42;23.60;84.50
30379;DHT22;17168;49.164;9.060;2022-08-01T07:39:09;23.70;84.50
30379;DHT22;17168;49.164;9.060;2022-08-01T07:41:36;23.70;84.30
30379;DHT22;17168;49.164;9.060;2022-08-01T07:44:22;23.80;84.10
30379;DHT22;17168;49.164;9.060;2022-08-01T07:46:55;23.80;83.80
30379;DHT22;17168;49.164;9.060;2022-08-01T07:49:22;23.80;83.10
30379;DHT22;17168;49.164;9.060;2022-08-01T07:51:49;23.90;82.50
30379;DHT22;17168;49.164;9.060;2022-08-01T07:54:30;23.90;82.20
30379;DHT22;17168;49.164;9.060;2022-08-01T07:56:59;24.00;82.20
30379;DHT22;17168;49.164;9.060;2022-08-01T07:59:26;24.10;81.50
30379;DHT22;17168;49.164;9.060;2022-08-01T08:01:54;24.20;81.70
30379;DHT22;17168;49.164;9.060;2022-08-01T08:04:21;24.10;81.80
30379;DHT22;17168;49.164;9.060;2022-08-01T08:06:48;24.20;81.70
30379;DHT22;17168;49.164;9.060;2022-08-01T08:09:15;24.20;81.60
30379;DHT22;17168;49.164;9.060;2022-08-01T08:11:43;24.30;81.30
30379;DHT22;17168;49.164;9.060;2022-08-01T08:14:13;24.30;81.40
30379;DHT22;17168;49.164;9.060;2022-08-01T08:16:41;24.40;81.30
30379;DHT22;17168;49.164;9.060;2022-08-01T08:19:10;24.50;81.20
30379;DHT22;17168;49.164;9.060;2022-08-01T08:21:37;24.50;81.20
30379;DHT22;17168;49.164;9.060;2022-08-01T08:24:05;24.50;80.90
30379;DHT22;17168;49.164;9.060;2022-08-01T08:26:54;24.60;81.10
30379;DHT22;17168;49.164;9.060;2022-08-01T08:29:21;24.60;80.70
30379;DHT22;17168;49.164;9.060;2022-08-01T08:31:49;24.70;80.70
30379;DHT22;17168;49.164;9.060;2022-08-01T08:34:20;24.80;81.00
30379;DHT22;17168;49.164;9.060;2022-08-01T08:36:48;24.80;81.00
30379;DHT22;17168;49.164;9.060;2022-08-01T08:39:15;24.90;81.10
30379;DHT22;17168;49.164;9.060;2022-08-01T08:41:45;24.90;81.10
30379;DHT22;17168;49.164;9.060;2022-08-01T08:44:16;25.00;80.90
30379;DHT22;17168;49.164;9.060;2022-08-01T08:46:45;25.00;81.00
30379;DHT22;17168;49.164;9.060;2022-08-01T08:49:16;25.10;81.00
30379;DHT22;17168;49.164;9.060;2022-08-01T08:51:47;25.20;80.80
30379;DHT22;17168;49.164;9.060;2022-08-01T08:54:16;25.20;81.00
30379;DHT22;17168;49.164;9.060;2022-08-01T08:56:45;25.30;81.00
30379;DHT22;17168;49.164;9.060;2022-08-01T08:59:13;25.30;80.90
30379;DHT22;17168;49.164;9.060;2022-08-01T09:01:41;25.30;81.00
30379;DHT22;17168;49.164;9.060;2022-08-01T09:04:08;25.30;81.10
30379;DHT22;17168;49.164;9.060;2022-08-01T09:06:35;25.40;81.50
30379;DHT22;17168;49.164;9.060;2022-08-01T09:09:04;25.30;81.30
30379;DHT22;17168;49.164;9.060;2022-08-01T09:11:32;25.40;81.60
30379;DHT22;17168;49.164;9.060;2022-08-01T09:14:08;25.50;81.80
30379;DHT22;17168;49.164;9.060;2022-08-01T09:16:36;25.50;81.90
30379;DHT22;17168;49.164;9.060;2022-08-01T09:19:08;25.60;81.90
30379;DHT22;17168;49.164;9.060;2022-08-01T09:21:57;25.60;82.80
30379;DHT22;17168;49.164;9.060;2022-08-01T09:24:27;25.60;83.00
30379;DHT22;17168;49.164;9.060;2022-08-01T09:26:57;25.60;83.20
30379;DHT22;17168;49.164;9.060;2022-08-01T09:29:27;25.70;83.40
30379;DHT22;17168;49.164;9.060;2022-08-01T09:32:05;25.70;83.20
30379;DHT22;17168;49.164;9.060;2022-08-01T09:34:33;25.90;83.20
30379;DHT22;17168;49.164;9.060;2022-08-01T09:37:01;25.90;82.80
30379;DHT22;17168;49.164;9.060;2022-08-01T09:39:31;26.00;83.10
30379;DHT22;17168;49.164;9.060;2022-08-01T09:42:00;26.00;83.90
30379;DHT22;17168;49.164;9.060;2022-08-01T09:44:38;26.10;84.30
30379;DHT22;17168;49.164;9.060;2022-08-01T09:47:10;26.30;84.60
30379;DHT22;17168;49.164;9.060;2022-08-01T09:49:42;26.40;84.70
30379;DHT22;17168;49.164;9.060;2022-08-01T09:52:19;26.50;85.10
30379;DHT22;17168;49.164;9.060;2022-08-01T09:54:53;26.50;84.80
30379;DHT22;17168;49.164;9.060;2022-08-01T09:57:22;26.50;84.80
30379;DHT22;17168;49.164;9.060;2022-08-01T09:59:51;26.60;85.20
30379;DHT22;17168;49.164;9.060;2022-08-01T10:02:29;26.70;85.50
30379;DHT22;17168;49.164;9.060;2022-08-01T10:04:56;26.70;85.10
30379;DHT22;17168;49.164;9.060;2022-08-01T10:07:34;26.80;85.10
30379;DHT22;17168;49.164;9.060;2022-08-01T10:10:13;26.80;85.00
30379;DHT22;17168;49.164;9.060;2022-08-01T10:12:41;26.90;84.90
30379;DHT22;17168;49.164;9.060;2022-08-01T10:15:14;26.80;84.90
30379;DHT22;17168;49.164;9.060;2022-08-01T10:17:55;26.80;85.30
30379;DHT22;17168;49.164;9.060;2022-08-01T10:20:25;26.90;85.60
30379;DHT22;17168;49.164;9.060;2022-08-01T10:23:01;26.90;85.40
30379;DHT22;17168;49.164;9.060;2022-08-01T10:25:40;26.90;85.40
30379;DHT22;17168;49.164;9.060;2022-08-01T10:28:14;27.00;85.60
30379;DHT22;17168;49.164;9.060;2022-08-01T10:30:49;27.10;85.60
30379;DHT22;17168;49.164;9.060;2022-08-01T10:33:21;27.10;85.40
30379;DHT22;17168;49.164;9.060;2022-08-01T10:36:11;27.10;85.70
30379;DHT22;17168;49.164;9.060;2022-08-01T10:38:42;27.20;85.40
30379;DHT22;17168;49.164;9.060;2022-08-01T10:41:18;27.20;85.20
30379;DHT22;17168;49.164;9.060;2022-08-01T10:43:52;27.20;85.20
30379;DHT22;17168;49.164;9.060;2022-08-01T10:46:23;27.20;85.00
30379;DHT22;17168;49.164;9.060;2022-08-01T10:48:54;27.30;84.90
30379;DHT22;17168;49.164;9.060;2022-08-01T10:51:29;27.30;84.80
30379;DHT22;17168;49.164;9.060;2022-08-01T10:54:16;27.30;84.80
30379;DHT22;17168;49.164;9.060;2022-08-01T10:56:46;27.50;85.30
30379;DHT22;17168;49.164;9.060;2022-08-01T10:59:15;27.50;85.30
30379;DHT22;17168;49.164;9.060;2022-08-01T11:02:06;27.60;84.90
30379;DHT22;17168;49.164;9.060;2022-08-01T11:04:41;27.60;85.00
30379;DHT22;17168;49.164;9.060;2022-08-01T11:07:16;27.60;84.60
30379;DHT22;17168;49.164;9.060;2022-08-01T11:09:45;27.60;76.00
30379;DHT22;17168;49.164;9.060;2022-08-01T11:12:19;27.60;66.60
30379;DHT22;17168;49.164;9.060;2022-08-01T11:18:04;27.60;66.10
30379;DHT22;17168;49.164;9.060;2022-08-01T11:20:58;27.70;65.40
30379;DHT22;17168;49.164;9.060;2022-08-01T11:23:48;27.70;65.30
30379;DHT22;17168;49.164;9.060;2022-08-01T11:26:16;27.80;65.20
30379;DHT22;17168;49.164;9.060;2022-08-01T11:31:46;28.00;65.00
30379;DHT22;17168;49.164;9.060;2022-08-01T11:34:14;28.20;66.40
30379;DHT22;17168;49.164;9.060;2022-08-01T11:36:41;28.30;68.30
30379;DHT22;17168;49.164;9.060;2022-08-01T11:39:25;28.40;69.70
30379;DHT22;17168;49.164;9.060;2022-08-01T11:41:52;28.60;71.50
30379;DHT22;17168;49.164;9.060;2022-08-01T11:44:24;28.70;73.70
30379;DHT22;17168;49.164;9.060;2022-08-01T11:46:58;28.70;75.20
30379;DHT22;17168;49.164;9.060;2022-08-01T11:49:47;28.80;76.60
30379;DHT22;17168;49.164;9.060;2022-08-01T11:52:19;28.90;77.50
30379;DHT22;17168;49.164;9.060;2022-08-01T11:54:52;28.70;80.70
30379;DHT22;17168;49.164;9.060;2022-08-01T11:57:24;28.80;82.20
30379;DHT22;17168;49.164;9.060;2022-08-01T12:00:04;28.60;82.00
30379;DHT22;17168;49.164;9.060;2022-08-01T12:02:34;28.80;82.50
30379;DHT22;17168;49.164;9.060;2022-08-01T12:05:05;28.90;84.20
30379;DHT22;17168;49.164;9.060;2022-08-01T12:07:35;29.10;85.00
30379;DHT22;17168;49.164;9.060;2022-08-01T12:10:06;29.50;84.80
30379;DHT22;17168;49.164;9.060;2022-08-01T12:12:34;29.90;84.20
30379;DHT22;17168;49.164;9.060;2022-08-01T12:20:06;30.40;83.10
30379;DHT22;17168;49.164;9.060;2022-08-01T12:22:33;30.80;82.80
30379;DHT22;17168;49.164;9.060;2022-08-01T12:25:07;31.20;72.70
30379;DHT22;17168;49.164;9.060;2022-08-01T12:27:37;31.50;52.00
30379;DHT22;17168;49.164;9.060;2022-08-01T12:30:09;31.40;51.60
30379;DHT22;17168;49.164;9.060;2022-08-01T12:32:38;31.40;51.50
30379;DHT22;17168;49.164;9.060;2022-08-01T12:35:08;31.80;51.50
30379;DHT22;17168;49.164;9.060;2022-08-01T12:37:40;32.50;51.10
30379;DHT22;17168;49.164;9.060;2022-08-01T12:40:55;33.00;50.40
30379;DHT22;17168;49.164;9.060;2022-08-01T12:43:52;33.00;49.70
30379;DHT22;17168;49.164;9.060;2022-08-01T12:46:37;32.60;49.50
30379;DHT22;17168;49.164;9.060;2022-08-01T12:49:10;32.40;49.50
30379;DHT22;17168;49.164;9.060;2022-08-01T12:51:37;32.10;49.60
30379;DHT22;17168;49.164;9.060;2022-08-01T12:54:04;31.90;49.50
30379;DHT22;17168;49.164;9.060;2022-08-01T12:56:32;31.60;49.70
30379;DHT22;17168;49.164;9.060;2022-08-01T12:58:59;31.50;49.90
30379;DHT22;17168;49.164;9.060;2022-08-01T13:01:27;31.40;49.80
30379;DHT22;17168;49.164;9.060;2022-08-01T13:03:59;31.40;49.80
30379;DHT22;17168;49.164;9.060;2022-08-01T13:06:28;31.70;49.90
30379;DHT22;17168;49.164;9.060;2022-08-01T13:09:03;32.30;50.00
30379;DHT22;17168;49.164;9.060;2022-08-01T13:11:31;32.80;49.40
30379;DHT22;17168;49.164;9.060;2022-08-01T13:13:58;33.30;48.80
30379;DHT22;17168;49.164;9.060;2022-08-01T13:16:26;33.80;48.40
30379;DHT22;17168;49.164;9.060;2022-08-01T13:19:14;34.00;47.70
30379;DHT22;17168;49.164;9.060;2022-08-01T13:21:54;34.00;47.40
30379;DHT22;17168;49.164;9.060;2022-08-01T13:24:25;34.00;47.30
30379;DHT22;17168;49.164;9.060;2022-08-01T13:26:55;34.10;46.90
30379;DHT22;17168;49.164;9.060;2022-08-01T13:29:32;34.20;46.70
30379;DHT22;17168;49.164;9.060;2022-08-01T13:32:00;34.00;46.40
30379;DHT22;17168;49.164;9.060;2022-08-01T13:34:32;33.80;46.50
30379;DHT22;17168;49.164;9.060;2022-08-01T13:37:00;33.50;46.50
30379;DHT22;17168;49.164;9.060;2022-08-01T13:39:28;33.30;46.50
30379;DHT22;17168;49.164;9.060;2022-08-01T13:42:07;33.20;46.40
30379;DHT22;17168;49.164;9.060;2022-08-01T13:44:35;33.20;46.50
30379;DHT22;17168;49.164;9.060;2022-08-01T13:47:02;33.10;46.30
30379;DHT22;17168;49.164;9.060;2022-08-01T13:49:43;33.20;46.30
30379;DHT22;17168;49.164;9.060;2022-08-01T13:52:10;33.20;46.20
30379;DHT22;17168;49.164;9.060;2022-08-01T13:54:37;33.30;46.40
30379;DHT22;17168;49.164;9.060;2022-08-01T13:57:04;33.50;46.20
30379;DHT22;17168;49.164;9.060;2022-08-01T13:59:31;33.80;46.00
30379;DHT22;17168;49.164;9.060;2022-08-01T14:01:58;34.10;45.70
30379;DHT22;17168;49.164;9.060;2022-08-01T14:04:24;34.40;45.60
30379;DHT22;17168;49.164;9.060;2022-08-01T14:06:53;34.50;45.30
30379;DHT22;17168;49.164;9.060;2022-08-01T14:09:20;34.50;44.90
30379;DHT22;17168;49.164;9.060;2022-08-01T14:11:50;34.50;44.70
30379;DHT22;17168;49.164;9.060;2022-08-01T14:14:17;34.50;44.50
30379;DHT22;17168;49.164;9.060;2022-08-01T14:16:44;34.70;44.40
30379;DHT22;17168;49.164;9.060;2022-08-01T14:19:11;34.80;44.20
30379;DHT22;17168;49.164;9.060;2022-08-01T14:21:38;34.70;44.00
30379;DHT22;17168;49.164;9.060;2022-08-01T14:24:07;34.30;44.00
30379;DHT22;17168;49.164;9.060;2022-08-01T14:26:34;34.00;44.10
30379;DHT22;17168;49.164;9.060;2022-08-01T14:29:01;33.80;44.30
30379;DHT22;17168;49.164;9.060;2022-08-01T14:31:28;33.50;44.50
30379;DHT22;17168;49.164;9.060;2022-08-01T14:33:59;33.20;44.70
30379;DHT22;17168;49.164;9.060;2022-08-01T14:36:26;32.90;44.90
30379;DHT22;17168;49.164;9.060;2022-08-01T14:38:57;32.50;45.10
30379;DHT22;17168;49.164;9.060;2022-08-01T14:41:28;32.20;45.50
30379;DHT22;17168;49.164;9.060;2022-08-01T14:43:56;31.90;45.30
30379;DHT22;17168;49.164;9.060;2022-08-01T14:46:23;31.80;46.00
30379;DHT22;17168;49.164;9.060;2022-08-01T14:48:50;31.70;46.10
30379;DHT22;17168;49.164;9.060;2022-08-01T14:51:17;31.70;46.30
30379;DHT22;17168;49.164;9.060;2022-08-01T14:53:44;31.60;46.40
30379;DHT22;17168;49.164;9.060;2022-08-01T14:56:16;31.50;46.60
30379;DHT22;17168;49.164;9.060;2022-08-01T14:58:45;31.50;46.60
30379;DHT22;17168;49.164;9.060;2022-08-01T15:01:14;31.50;46.90
30379;DHT22;17168;49.164;9.060;2022-08-01T15:03:41;31.40;47.00
30379;DHT22;17168;49.164;9.060;2022-08-01T15:06:08;31.30;47.00
30379;DHT22;17168;49.164;9.060;2022-08-01T15:08:36;31.20;47.20
30379;DHT22;17168;49.164;9.060;2022-08-01T15:11:02;31.10;47.20
30379;DHT22;17168;49.164;9.060;2022-08-01T15:13:29;31.00;47.30
30379;DHT22;17168;49.164;9.060;2022-08-01T15:15:58;30.90;47.50
30379;DHT22;17168;49.164;9.060;2022-08-01T15:18:26;30.80;47.40
30379;DHT22;17168;49.164;9.060;2022-08-01T15:20:53;30.70;47.60
30379;DHT22;17168;49.164;9.060;2022-08-01T15:23:20;30.60;47.70
30379;DHT22;17168;49.164;9.060;2022-08-01T15:25:47;30.60;47.60
30379;DHT22;17168;49.164;9.060;2022-08-01T15:28:14;30.50;47.50
30379;DHT22;17168;49.164;9.060;2022-08-01T15:30:41;30.50;47.20
30379;DHT22;17168;49.164;9.060;2022-08-01T15:33:12;30.50;47.00
30379;DHT22;17168;49.164;9.060;2022-08-01T15:35:39;30.50;47.20
30379;DHT22;17168;49.164;9.060;2022-08-01T15:38:18;30.60;47.20
30379;DHT22;17168;49.164;9.060;2022-08-01T15:40:51;30.80;47.20
30379;DHT22;17168;49.164;9.060;2022-08-01T15:43:18;31.00;47.10
30379;DHT22;17168;49.164;9.060;2022-08-01T15:45:46;31.10;47.10
30379;DHT22;17168;49.164;9.060;2022-08-01T15:48:15;31.20;47.30
30379;DHT22;17168;49.164;9.060;2022-08-01T15:50:43;31.40;47.20
30379;DHT22;17168;49.164;9.060;2022-08-01T15:53:09;31.40;46.90
30379;DHT22;17168;49.164;9.060;2022-08-01T15:55:37;31.30;46.80
30379;DHT22;17168;49.164;9.060;2022-08-01T15:58:04;31.30;46.80
30379;DHT22;17168;49.164;9.060;2022-08-01T16:00:31;31.30;46.80
30379;DHT22;17168;49.164;9.060;2022-08-01T16:03:05;31.20;46.80